Time;durP1;ratioP1;P1;durP2;ratioP2;P2;SDS_P1;SDS_P2;PMS_P1;PMS_P2;Temp;Humidity;BMP_temperature;BMP_pressure;BME280_temperature;BME280_humidity;BME280_pressure;Samples;Min_cycle;Max_cycle;Signal;HPM_P1;HPM_P2
2022/12/01 00:01:40;;;;;;;127.65;36.65;;;;;;;;;;5052248;28;20080;-66
2022/12/01 00:04:06;;;;;;;119.53;33.22;;;;;;;;;;5052298;28;20091;-66
2022/12/01 00:06:33;;;;;;;105.50;31.45;;;;;;;;;;5052242;28;20053;-66
2022/12/01 00:11:45;;;;;;;82.53;26.95;;;;;;;;;;5052297;28;20106;-66
2022/12/01 00:14:12;;;;;;;73.45;24.25;;;;;;;;;;5052038;28;20079;-66
2022/12/01 00:16:39;;;;;;;87.68;25.33;;;;;;;;;;5051477;28;20473;-66
2022/12/01 00:19:07;;;;;;;97.40;23.95;;;;;;;;;;5051967;28;20048;-66
2022/12/01 00:21:33;;;;;;;63.72;23.70;;;;;;;;;;5052060;28;20459;-66
2022/12/01 00:24:00;;;;;;;108.63;24.00;;;;;;;;;;5051802;28;20080;-66
2022/12/01 00:26:27;;;;;;;76.68;24.10;;;;;;;;;;5052079;28;20048;-67
2022/12/01 00:28:54;;;;;;;117.68;24.58;;;;;;;;;;5052109;28;20093;-66
2022/12/01 00:31:21;;;;;;;107.80;26.05;;;;;;;;;;5051862;28;20132;-67
2022/12/01 00:33:48;;;;;;;93.90;21.80;;;;;;;;;;5051855;28;20111;-66
2022/12/01 00:36:14;;;;;;;86.32;24.13;;;;;;;;;;5051642;28;20488;-66
2022/12/01 00:38:41;;;;;;;92.28;25.15;;;;;;;;;;5047324;28;20091;-66
2022/12/01 00:41:08;;;;;;;90.78;22.30;;;;;;;;;;5050632;28;20055;-66
2022/12/01 00:43:34;;;;;;;90.65;23.17;;;;;;;;;;5051452;28;20507;-66
2022/12/01 00:46:01;;;;;;;68.78;20.00;;;;;;;;;;5051597;28;20412;-66
2022/12/01 00:48:27;;;;;;;67.07;19.27;;;;;;;;;;5051433;28;20095;-67
2022/12/01 00:50:54;;;;;;;91.80;21.52;;;;;;;;;;5050297;28;20488;-66
2022/12/01 00:53:21;;;;;;;85.10;20.63;;;;;;;;;;5051403;28;20057;-66
2022/12/01 00:55:47;;;;;;;70.00;17.05;;;;;;;;;;5051451;28;20049;-66
2022/12/01 00:58:14;;;;;;;85.30;19.60;;;;;;;;;;5051511;28;20053;-66
2022/12/01 01:00:41;;;;;;;64.10;18.05;;;;;;;;;;5051326;28;20085;-66
2022/12/01 01:03:08;;;;;;;77.78;18.90;;;;;;;;;;5051345;28;20530;-66
2022/12/01 01:05:39;;;;;;;76.68;18.25;;;;;;;;;;5051300;28;20080;-66
2022/12/01 01:08:06;;;;;;;47.75;17.38;;;;;;;;;;5051681;28;20120;-66
2022/12/01 01:10:33;;;;;;;58.13;16.75;;;;;;;;;;5051503;28;20053;-66
2022/12/01 01:12:59;;;;;;;66.32;18.65;;;;;;;;;;5051421;28;20044;-66
2022/12/01 01:15:26;;;;;;;89.53;20.48;;;;;;;;;;5051597;28;20045;-66
2022/12/01 01:17:52;;;;;;;110.57;22.02;;;;;;;;;;5051280;28;20469;-66
2022/12/01 01:20:18;;;;;;;108.32;19.83;;;;;;;;;;5051057;28;20085;-66
2022/12/01 01:22:45;;;;;;;97.78;18.98;;;;;;;;;;5051530;28;20048;-66
2022/12/01 01:25:11;;;;;;;105.47;19.05;;;;;;;;;;5051174;28;20047;-66
2022/12/01 01:27:38;;;;;;;132.73;21.17;;;;;;;;;;5053895;28;20045;-66
2022/12/01 01:30:04;;;;;;;93.80;19.35;;;;;;;;;;5055090;28;20051;-66
2022/12/01 01:32:31;;;;;;;161.40;24.05;;;;;;;;;;5055105;28;20140;-66
2022/12/01 01:34:57;;;;;;;134.48;21.08;;;;;;;;;;5054879;28;20563;-66
2022/12/01 01:37:23;;;;;;;138.52;23.25;;;;;;;;;;5054955;28;20132;-66
2022/12/01 01:39:50;;;;;;;151.90;23.35;;;;;;;;;;5054966;28;20137;-66
2022/12/01 01:42:18;;;;;;;159.20;24.35;;;;;;;;;;5055142;28;20136;-66
2022/12/01 01:44:44;;;;;;;;;;;;;;;;;;5055217;28;20132;-66
2022/12/01 01:47:11;;;;;;;117.53;22.80;;;;;;;;;;5054738;28;19967;-66
2022/12/01 01:49:39;;;;;;;174.48;26.33;;;;;;;;;;5055004;28;20424;-66
2022/12/01 01:52:05;;;;;;;132.18;23.27;;;;;;;;;;5055029;28;20041;-66
2022/12/01 01:54:38;;;;;;;148.80;22.38;;;;;;;;;;5054589;28;20132;-67
2022/12/01 01:57:05;;;;;;;111.65;20.17;;;;;;;;;;5054630;28;20043;-66
2022/12/01 01:59:36;;;;;;;77.72;18.70;;;;;;;;;;5054752;28;20131;-67
2022/12/01 02:02:05;;;;;;;119.20;19.83;;;;;;;;;;5054729;28;20429;-66
2022/12/01 02:04:33;;;;;;;106.60;20.23;;;;;;;;;;5054561;28;20049;-66
2022/12/01 02:06:59;;;;;;;92.93;19.50;;;;;;;;;;5054531;28;20055;-66
2022/12/01 02:09:26;;;;;;;105.28;19.08;;;;;;;;;;5054326;28;20497;-66
2022/12/01 02:11:52;;;;;;;133.95;21.73;;;;;;;;;;5054225;28;20049;-66
2022/12/01 02:14:32;;;;;;;83.97;17.88;;;;;;;;;;5053944;28;20055;-66
2022/12/01 02:17:17;;;;;;;78.65;17.50;;;;;;;;;;5054281;28;20057;-66
2022/12/01 02:19:44;;;;;;;91.10;18.17;;;;;;;;;;5053899;28;20504;-66
2022/12/01 02:22:17;;;;;;;111.45;19.85;;;;;;;;;;5054038;28;20048;-66
2022/12/01 02:24:50;;;;;;;115.72;20.13;;;;;;;;;;5054291;28;20135;-66
2022/12/01 02:27:35;;;;;;;150.02;21.25;;;;;;;;;;5054325;28;20068;-66
2022/12/01 02:30:13;;;;;;;126.07;21.73;;;;;;;;;;5054277;28;20132;-66
2022/12/01 02:32:40;;;;;;;158.45;21.40;;;;;;;;;;5053976;28;20136;-66
2022/12/01 02:35:06;;;;;;;102.97;18.23;;;;;;;;;;5052694;28;20132;-66
2022/12/01 02:37:37;;;;;;;105.13;18.35;;;;;;;;;;5053260;28;20176;-66
2022/12/01 02:40:26;;;;;;;130.15;19.17;;;;;;;;;;5053300;28;20045;-67
2022/12/01 02:43:05;;;;;;;146.23;18.73;;;;;;;;;;5042389;28;20080;-66
2022/12/01 02:45:40;;;;;;;71.28;15.27;;;;;;;;;;5053581;28;20083;-67
2022/12/01 02:48:40;;;;;;;103.55;16.42;;;;;;;;;;5053634;28;20044;-66
2022/12/01 02:51:08;;;;;;;86.22;16.25;;;;;;;;;;5043085;28;20515;-66
2022/12/01 02:53:34;;;;;;;93.40;16.92;;;;;;;;;;5052082;28;20083;-66
2022/12/01 02:56:04;;;;;;;82.93;17.52;;;;;;;;;;5053756;28;20151;-67
2022/12/01 02:58:31;;;;;;;132.43;20.05;;;;;;;;;;5053619;28;20069;-66
2022/12/01 03:01:19;;;;;;;79.20;16.63;;;;;;;;;;5053525;28;20076;-66
2022/12/01 03:04:04;;;;;;;106.93;18.05;;;;;;;;;;5053544;28;20484;-66
2022/12/01 03:06:50;;;;;;;78.78;15.60;;;;;;;;;;5053323;28;20044;-66
2022/12/01 03:09:16;;;;;;;86.47;17.50;;;;;;;;;;5053172;28;20084;-66
2022/12/01 03:11:56;;;;;;;104.18;18.98;;;;;;;;;;5053178;28;20084;-66
2022/12/01 03:14:33;;;;;;;78.55;14.55;;;;;;;;;;5053106;28;20085;-66
2022/12/01 03:17:02;;;;;;;121.53;17.48;;;;;;;;;;5053155;28;20053;-66
2022/12/01 03:19:29;;;;;;;83.53;15.88;;;;;;;;;;5053021;28;20084;-66
2022/12/01 03:22:07;;;;;;;85.53;14.07;;;;;;;;;;5052883;28;20536;-66
2022/12/01 03:24:34;;;;;;;77.38;15.68;;;;;;;;;;5052987;28;20120;-66
2022/12/01 03:27:01;;;;;;;111.00;17.17;;;;;;;;;;5052893;28;20139;-66
2022/12/01 03:29:35;;;;;;;94.93;16.23;;;;;;;;;;5052778;28;20132;-66
2022/12/01 03:32:14;;;;;;;78.97;15.82;;;;;;;;;;5052863;28;20057;-66
2022/12/01 03:34:41;;;;;;;97.82;16.00;;;;;;;;;;5052732;28;20504;-66
2022/12/01 03:37:17;;;;;;;98.35;16.42;;;;;;;;;;5053028;28;20075;-66
2022/12/01 03:39:45;;;;;;;99.22;16.27;;;;;;;;;;5052602;28;20053;-67
2022/12/01 03:42:30;;;;;;;94.20;16.80;;;;;;;;;;5052737;28;20041;-66
2022/12/01 03:44:59;;;;;;;76.93;16.33;;;;;;;;;;5052671;28;20179;-66
2022/12/01 03:47:29;;;;;;;120.63;18.13;;;;;;;;;;5052587;28;20128;-66
2022/12/01 03:49:57;;;;;;;120.43;18.00;;;;;;;;;;5052169;28;20136;-67
2022/12/01 03:52:38;;;;;;;65.90;14.13;;;;;;;;;;5052154;28;20080;-66
2022/12/01 03:55:08;;;;;;;68.10;14.45;;;;;;;;;;5052361;28;20488;-66
2022/12/01 03:57:46;;;;;;;71.72;15.68;;;;;;;;;;5052620;28;20049;-67
2022/12/01 04:00:13;;;;;;;108.35;16.85;;;;;;;;;;5052428;28;20059;-66
2022/12/01 04:02:40;;;;;;;62.45;14.93;;;;;;;;;;5052439;28;20131;-66
2022/12/01 04:05:10;;;;;;;86.68;15.57;;;;;;;;;;5052436;28;20070;-66
2022/12/01 04:07:37;;;;;;;83.80;15.25;;;;;;;;;;5052339;28;20067;-66
2022/12/01 04:10:04;;;;;;;81.97;13.70;;;;;;;;;;5052020;28;20404;-66
2022/12/01 04:12:33;;;;;;;76.22;13.88;;;;;;;;;;5050460;28;20120;-66
2022/12/01 04:15:04;;;;;;;101.53;14.95;;;;;;;;;;5052054;28;20069;-66
2022/12/01 04:17:31;;;;;;;106.00;16.30;;;;;;;;;;5052216;28;20049;-66
2022/12/01 04:19:57;;;;;;;75.57;15.02;;;;;;;;;;5051871;28;20178;-66
2022/12/01 04:22:24;;;;;;;102.35;15.50;;;;;;;;;;5051769;28;20141;-66
2022/12/01 04:24:51;;;;;;;84.30;14.50;;;;;;;;;;5051855;28;20051;-66
2022/12/01 04:27:17;;;;;;;82.10;15.13;;;;;;;;;;5052178;28;20045;-66
2022/12/01 04:29:44;;;;;;;110.10;16.70;;;;;;;;;;5051616;28;20084;-66
2022/12/01 04:32:10;;;;;;;101.80;15.93;;;;;;;;;;5045227;28;20053;-66
2022/12/01 04:34:37;;;;;;;95.63;15.25;;;;;;;;;;5044665;28;20475;-66
2022/12/01 04:37:04;;;;;;;70.53;13.38;;;;;;;;;;5051634;28;20076;-66
2022/12/01 04:39:31;;;;;;;75.55;14.20;;;;;;;;;;5051682;28;20088;-66
2022/12/01 04:41:57;;;;;;;81.05;15.73;;;;;;;;;;5051585;28;20041;-67
2022/12/01 04:44:23;;;;;;;66.57;13.50;;;;;;;;;;5051573;28;20136;-66
2022/12/01 04:46:55;;;;;;;127.72;17.42;;;;;;;;;;5051441;28;20077;-66
2022/12/01 04:49:21;;;;;;;62.08;13.77;;;;;;;;;;5051555;28;20520;-66
2022/12/01 04:51:48;;;;;;;74.30;14.23;;;;;;;;;;5051671;28;20063;-66
2022/12/01 04:54:15;;;;;;;72.15;13.52;;;;;;;;;;5051390;28;20080;-66
2022/12/01 04:56:41;;;;;;;77.63;14.03;;;;;;;;;;5051511;28;20055;-66
2022/12/01 04:59:08;;;;;;;144.02;18.80;;;;;;;;;;5051278;28;20140;-66
2022/12/01 05:01:35;;;;;;;69.32;13.85;;;;;;;;;;5052738;28;20049;-66
2022/12/01 05:04:01;;;;;;;87.25;15.70;;;;;;;;;;5055684;28;20102;-66
2022/12/01 05:06:28;;;;;;;73.18;15.75;;;;;;;;;;5055559;28;20128;-66
2022/12/01 05:08:55;;;;;;;65.72;14.27;;;;;;;;;;5054455;28;20051;-66
2022/12/01 05:11:23;;;;;;;68.57;14.63;;;;;;;;;;5055371;28;20088;-66
2022/12/01 05:13:49;;;;;;;125.30;18.90;;;;;;;;;;5055691;28;20408;-66
2022/12/01 05:16:16;;;;;;;67.30;13.55;;;;;;;;;;5055461;28;20369;-66
2022/12/01 05:18:42;;;;;;;80.22;15.35;;;;;;;;;;5055476;28;20059;-66
2022/12/01 05:21:10;;;;;;;55.03;13.77;;;;;;;;;;5055050;28;20098;-66
2022/12/01 05:23:36;;;;;;;83.70;14.32;;;;;;;;;;5055284;28;20144;-66
2022/12/01 05:26:04;;;;;;;92.50;14.07;;;;;;;;;;5055174;28;20500;-66
2022/12/01 05:28:30;;;;;;;105.15;15.38;;;;;;;;;;5055175;28;20137;-66
2022/12/01 05:30:57;;;;;;;65.65;11.90;;;;;;;;;;5055420;28;20085;-66
2022/12/01 05:33:24;;;;;;;102.30;14.10;;;;;;;;;;5055161;28;20412;-66
2022/12/01 05:35:51;;;;;;;44.90;10.85;;;;;;;;;;5055052;28;20059;-66
2022/12/01 05:38:18;;;;;;;48.00;10.30;;;;;;;;;;5054922;28;20087;-66
2022/12/01 05:40:51;;;;;;;48.90;11.27;;;;;;;;;;5054844;28;20519;-66
2022/12/01 05:43:18;;;;;;;51.17;10.60;;;;;;;;;;5055096;28;20076;-66
2022/12/01 05:45:50;;;;;;;63.85;11.43;;;;;;;;;;5054911;28;20131;-66
2022/12/01 05:48:17;;;;;;;56.83;10.70;;;;;;;;;;5053724;28;20075;-66
2022/12/01 05:50:43;;;;;;;45.25;9.05;;;;;;;;;;5054983;28;20135;-66
2022/12/01 05:53:11;;;;;;;57.05;10.15;;;;;;;;;;5054669;28;20076;-66
2022/12/01 05:55:37;;;;;;;55.22;9.98;;;;;;;;;;5054976;28;20083;-66
2022/12/01 05:58:04;;;;;;;50.72;10.77;;;;;;;;;;5054772;28;20480;-66
2022/12/01 06:00:30;;;;;;;77.32;11.73;;;;;;;;;;5054812;28;20040;-66
2022/12/01 06:02:56;;;;;;;86.35;12.32;;;;;;;;;;5054764;28;20136;-66
2022/12/01 06:05:23;;;;;;;74.03;12.43;;;;;;;;;;5054456;28;20140;-66
2022/12/01 06:07:49;;;;;;;35.22;9.88;;;;;;;;;;5054627;28;20080;-66
2022/12/01 06:10:16;;;;;;;61.25;10.88;;;;;;;;;;5054552;28;20041;-66
2022/12/01 06:12:42;;;;;;;57.50;10.68;;;;;;;;;;5054585;28;20140;-66
2022/12/01 06:15:09;;;;;;;59.55;9.32;;;;;;;;;;5054606;28;20076;-66
2022/12/01 06:17:36;;;;;;;53.67;10.52;;;;;;;;;;5054255;28;20084;-66
2022/12/01 06:20:06;;;;;;;50.60;9.68;;;;;;;;;;5054113;28;20064;-66
2022/12/01 06:22:32;;;;;;;51.28;9.50;;;;;;;;;;5054049;28;20076;-67
2022/12/01 06:24:58;;;;;;;51.78;9.90;;;;;;;;;;5054261;28;20131;-66
2022/12/01 06:27:25;;;;;;;51.00;9.38;;;;;;;;;;5054391;28;20433;-66
2022/12/01 06:29:51;;;;;;;49.75;10.70;;;;;;;;;;5054258;28;20140;-66
2022/12/01 06:32:18;;;;;;;40.42;8.38;;;;;;;;;;5053913;28;20077;-66
2022/12/01 06:34:45;;;;;;;40.92;10.13;;;;;;;;;;5053718;28;20128;-66
2022/12/01 06:37:14;;;;;;;29.27;10.20;;;;;;;;;;5053743;28;20497;-67
2022/12/01 06:39:40;;;;;;;71.88;12.48;;;;;;;;;;5053844;28;20143;-66
2022/12/01 06:42:07;;;;;;;41.78;9.95;;;;;;;;;;5053890;28;20463;-66
2022/12/01 06:44:33;;;;;;;52.40;10.43;;;;;;;;;;5053617;28;20049;-66
2022/12/01 06:46:59;;;;;;;51.38;10.45;;;;;;;;;;5053579;28;20103;-66
2022/12/01 06:49:26;;;;;;;58.88;11.30;;;;;;;;;;5053471;28;20059;-66
2022/12/01 06:51:52;;;;;;;68.25;9.77;;;;;;;;;;5053482;28;20131;-66
2022/12/01 06:54:20;;;;;;;53.33;9.95;;;;;;;;;;5042491;28;20132;-66
2022/12/01 06:56:46;;;;;;;51.28;9.73;;;;;;;;;;5037657;28;20073;-66
2022/12/01 06:59:13;;;;;;;56.10;11.02;;;;;;;;;;5053365;28;20055;-67
2022/12/01 07:01:39;;;;;;;51.95;9.48;;;;;;;;;;5053252;28;20453;-66
2022/12/01 07:04:06;;;;;;;102.88;12.10;;;;;;;;;;5053189;28;20045;-67
2022/12/01 07:06:32;;;;;;;86.53;11.65;;;;;;;;;;5053486;28;20140;-66
2022/12/01 07:08:59;;;;;;;60.08;11.05;;;;;;;;;;5053366;28;20128;-67
2022/12/01 07:11:25;;;;;;;61.90;9.88;;;;;;;;;;5053191;28;20049;-66
2022/12/01 07:13:54;;;;;;;83.50;12.07;;;;;;;;;;5041644;28;20060;-67
2022/12/01 07:16:21;;;;;;;82.97;10.77;;;;;;;;;;5035793;28;20057;-66
2022/12/01 07:18:48;;;;;;;76.27;10.50;;;;;;;;;;5032911;28;20550;-66
2022/12/01 07:21:15;;;;;;;54.70;9.93;;;;;;;;;;5034454;28;20142;-66
2022/12/01 07:23:41;;;;;;;50.20;10.52;;;;;;;;;;5032689;28;20124;-66
2022/12/01 07:26:16;;;;;;;100.03;11.77;;;;;;;;;;5032430;28;20552;-66
2022/12/01 07:28:43;;;;;;;58.92;10.18;;;;;;;;;;5045171;28;20048;-66
2022/12/01 07:31:14;;;;;;;59.47;11.48;;;;;;;;;;5039823;28;20128;-66
2022/12/01 07:33:40;;;;;;;49.38;10.00;;;;;;;;;;5047041;28;20045;-66
2022/12/01 07:36:07;;;;;;;54.95;9.70;;;;;;;;;;5051290;28;20132;-66
2022/12/01 07:38:34;;;;;;;111.45;14.32;;;;;;;;;;5051610;28;20080;-66
2022/12/01 07:41:08;;;;;;;71.38;12.02;;;;;;;;;;5051201;28;20401;-66
2022/12/01 07:43:35;;;;;;;62.45;10.05;;;;;;;;;;5052153;28;20077;-67
2022/12/01 07:46:11;;;;;;;95.20;12.45;;;;;;;;;;5052454;28;20497;-67
2022/12/01 07:48:46;;;;;;;97.70;13.13;;;;;;;;;;5043779;28;20046;-66
2022/12/01 07:51:15;;;;;;;101.53;12.70;;;;;;;;;;5047389;28;20080;-66
2022/12/01 07:53:45;;;;;;;81.20;11.48;;;;;;;;;;5052424;28;20144;-67
2022/12/01 07:56:12;;;;;;;64.43;8.90;;;;;;;;;;5052301;28;20072;-66
2022/12/01 07:58:38;;;;;;;61.55;10.75;;;;;;;;;;5052529;28;20076;-66
2022/12/01 08:01:12;;;;;;;47.13;10.02;;;;;;;;;;5052357;28;20056;-67
2022/12/01 08:03:38;;;;;;;80.32;11.40;;;;;;;;;;5051976;28;20045;-66
2022/12/01 08:06:05;;;;;;;104.60;12.45;;;;;;;;;;5052636;28;20448;-67
2022/12/01 08:08:33;;;;;;;54.60;10.05;;;;;;;;;;5052326;28;20128;-67
2022/12/01 08:11:00;;;;;;;50.67;10.02;;;;;;;;;;5052387;28;20056;-66
2022/12/01 08:13:27;;;;;;;69.38;9.70;;;;;;;;;;5052229;28;20045;-67
2022/12/01 08:15:54;;;;;;;100.65;12.38;;;;;;;;;;5052039;28;20486;-67
2022/12/01 08:18:21;;;;;;;66.50;10.45;;;;;;;;;;5052230;28;20136;-67
2022/12/01 08:20:49;;;;;;;70.03;9.40;;;;;;;;;;5051807;28;20079;-66
2022/12/01 08:23:15;;;;;;;57.30;10.67;;;;;;;;;;5051672;28;20564;-67
2022/12/01 08:25:41;;;;;;;57.22;9.63;;;;;;;;;;5051872;28;20369;-66
2022/12/01 08:28:08;;;;;;;72.97;10.02;;;;;;;;;;5051785;28;20041;-66
2022/12/01 08:30:35;;;;;;;47.45;8.52;;;;;;;;;;5052112;28;20049;-67
2022/12/01 08:33:01;;;;;;;40.33;8.88;;;;;;;;;;5051752;28;20045;-66
2022/12/01 08:35:28;;;;;;;71.22;9.23;;;;;;;;;;5051643;28;20061;-67
2022/12/01 08:37:54;;;;;;;116.47;11.77;;;;;;;;;;5051142;28;20569;-67
2022/12/01 08:40:21;;;;;;;85.22;11.27;;;;;;;;;;5051663;28;20045;-67
2022/12/01 08:42:47;;;;;;;60.60;10.10;;;;;;;;;;5051566;28;20139;-67
2022/12/01 08:45:13;;;;;;;52.47;9.55;;;;;;;;;;5051805;28;20102;-66
2022/12/01 08:47:40;;;;;;;61.58;9.57;;;;;;;;;;5050317;28;20063;-66
2022/12/01 08:50:06;;;;;;;90.00;11.18;;;;;;;;;;5051478;28;20052;-66
2022/12/01 08:52:33;;;;;;;90.03;12.02;;;;;;;;;;5051549;28;20111;-67
2022/12/01 08:54:59;;;;;;;69.15;12.30;;;;;;;;;;5051678;28;20083;-67
2022/12/01 08:57:28;;;;;;;41.40;8.73;;;;;;;;;;5051750;28;20079;-67
2022/12/01 08:59:54;;;;;;;55.97;9.25;;;;;;;;;;5051556;28;20084;-67
2022/12/01 09:02:21;;;;;;;60.70;9.38;;;;;;;;;;5051403;28;20102;-66
2022/12/01 09:04:48;;;;;;;52.55;8.80;;;;;;;;;;5051323;28;20068;-67
2022/12/01 09:07:15;;;;;;;52.78;8.88;;;;;;;;;;5051391;28;20132;-67
2022/12/01 09:09:50;;;;;;;60.85;9.02;;;;;;;;;;5051758;28;20431;-67
2022/12/01 09:12:16;;;;;;;47.72;7.97;;;;;;;;;;5051334;28;20056;-67
2022/12/01 09:14:48;;;;;;;51.38;8.95;;;;;;;;;;5051257;28;20593;-66
2022/12/01 09:17:15;;;;;;;70.43;10.32;;;;;;;;;;5051188;28;20063;-67
2022/12/01 09:19:42;;;;;;;43.72;9.02;;;;;;;;;;5051086;28;20564;-66
2022/12/01 09:22:09;;;;;;;55.35;8.98;;;;;;;;;;5051229;28;20084;-66
2022/12/01 09:24:35;;;;;;;36.22;8.20;;;;;;;;;;5051245;28;20450;-66
2022/12/01 09:27:02;;;;;;;50.67;8.57;;;;;;;;;;5051263;28;20575;-66
2022/12/01 09:29:29;;;;;;;53.10;9.27;;;;;;;;;;5051393;28;20085;-66
2022/12/01 09:31:56;;;;;;;72.10;9.63;;;;;;;;;;5051184;28;20071;-66
2022/12/01 09:34:23;;;;;;;39.03;8.98;;;;;;;;;;5048624;28;20081;-67
2022/12/01 09:36:53;;;;;;;42.25;9.02;;;;;;;;;;5051401;28;20131;-66
2022/12/01 09:39:20;;;;;;;53.00;9.93;;;;;;;;;;5051017;28;20056;-66
2022/12/01 09:41:53;;;;;;;74.30;12.43;;;;;;;;;;5051038;28;20155;-67
2022/12/01 09:44:23;;;;;;;59.35;10.43;;;;;;;;;;5050974;28;20049;-66
2022/12/01 09:46:54;;;;;;;96.22;12.85;;;;;;;;;;5051186;28;20068;-66
2022/12/01 09:49:22;;;;;;;85.68;10.13;;;;;;;;;;5054993;28;20045;-66
2022/12/01 09:51:49;;;;;;;;;;;;;;;;;;5055274;28;20080;-66
2022/12/01 09:54:15;;;;;;;82.35;10.05;;;;;;;;;;5054648;28;20420;-66
2022/12/01 09:56:44;;;;;;;90.20;11.80;;;;;;;;;;5054604;28;20045;-66
2022/12/01 09:59:16;;;;;;;47.60;8.63;;;;;;;;;;5054573;28;20139;-66
2022/12/01 10:01:45;;;;;;;74.45;10.30;;;;;;;;;;5054678;28;20479;-66
2022/12/01 10:04:32;;;;;;;68.43;10.77;;;;;;;;;;5054426;28;20052;-66
2022/12/01 10:06:58;;;;;;;74.22;10.18;;;;;;;;;;5054402;28;20047;-66
2022/12/01 10:09:31;;;;;;;47.42;9.18;;;;;;;;;;5054367;28;20128;-66
2022/12/01 10:12:00;;;;;;;68.82;9.70;;;;;;;;;;5054502;28;20048;-66
2022/12/01 10:14:28;;;;;;;44.72;9.88;;;;;;;;;;5054328;28;20381;-66
2022/12/01 10:16:54;;;;;;;54.53;9.55;;;;;;;;;;5054290;28;20053;-66
2022/12/01 10:19:24;;;;;;;92.32;11.15;;;;;;;;;;5053881;28;20051;-66
2022/12/01 10:21:51;;;;;;;105.53;13.07;;;;;;;;;;5054116;28;20478;-66
2022/12/01 10:24:36;;;;;;;80.55;10.38;;;;;;;;;;5054267;28;20390;-66
2022/12/01 10:27:08;;;;;;;78.80;11.80;;;;;;;;;;5054455;28;20462;-66
2022/12/01 10:29:47;;;;;;;64.32;11.02;;;;;;;;;;5054072;28;20077;-66
2022/12/01 10:32:18;;;;;;;60.22;9.60;;;;;;;;;;5054052;28;20049;-66
2022/12/01 10:34:46;;;;;;;70.13;9.95;;;;;;;;;;5054170;28;20076;-66
2022/12/01 10:37:13;;;;;;;;;;;;;;;;;;5054662;28;20079;-66
2022/12/01 10:39:41;;;;;;;63.83;9.60;;;;;;;;;;5054014;28;19921;-66
2022/12/01 10:42:34;;;;;;;51.67;10.38;;;;;;;;;;5053866;28;20132;-66
2022/12/01 10:45:03;;;;;;;59.65;8.80;;;;;;;;;;5053348;28;20045;-66
2022/12/01 10:47:30;;;;;;;64.53;9.25;;;;;;;;;;5053956;28;20049;-66
2022/12/01 10:49:57;;;;;;;42.15;8.88;;;;;;;;;;5053783;28;20076;-67
2022/12/01 10:52:37;;;;;;;43.03;9.75;;;;;;;;;;5053740;28;20148;-66
2022/12/01 10:55:22;;;;;;;49.47;9.60;;;;;;;;;;5053580;28;20167;-66
2022/12/01 10:57:49;;;;;;;49.20;8.25;;;;;;;;;;5053802;28;20405;-67
2022/12/01 11:00:21;;;;;;;78.28;10.30;;;;;;;;;;5052840;28;20140;-66
2022/12/01 11:03:17;;;;;;;66.20;8.40;;;;;;;;;;5053413;28;20099;-67
2022/12/01 11:05:52;;;;;;;82.68;11.32;;;;;;;;;;5053624;28;20040;-66
2022/12/01 11:08:22;;;;;;;60.83;10.73;;;;;;;;;;5053601;28;20091;-66
2022/12/01 11:10:49;;;;;;;54.97;8.82;;;;;;;;;;5053488;28;20083;-66
2022/12/01 11:13:23;;;;;;;66.43;10.18;;;;;;;;;;5053236;28;20052;-66
2022/12/01 11:15:59;;;;;;;71.82;9.68;;;;;;;;;;5053445;28;20044;-66
2022/12/01 11:18:26;;;;;;;35.22;8.52;;;;;;;;;;5053138;28;20056;-67
2022/12/01 11:21:11;;;;;;;58.65;8.90;;;;;;;;;;5052855;28;20064;-66
2022/12/01 11:23:44;;;;;;;79.32;10.50;;;;;;;;;;5052928;28;20132;-66
2022/12/01 11:26:12;;;;;;;67.18;9.90;;;;;;;;;;5052906;28;20053;-66
2022/12/01 11:28:41;;;;;;;29.90;7.93;;;;;;;;;;5052917;28;20045;-66
2022/12/01 11:31:08;;;;;;;31.90;7.85;;;;;;;;;;5053060;28;20078;-66
2022/12/01 11:33:47;;;;;;;56.38;8.27;;;;;;;;;;5052879;28;20048;-67
2022/12/01 11:36:20;;;;;;;40.72;8.77;;;;;;;;;;5052979;28;20048;-66
2022/12/01 11:38:46;;;;;;;49.13;7.72;;;;;;;;;;5052764;28;20140;-67
2022/12/01 11:41:25;;;;;;;34.20;7.93;;;;;;;;;;5052907;28;20135;-67
2022/12/01 11:43:52;;;;;;;40.42;8.15;;;;;;;;;;5052779;28;20133;-67
2022/12/01 11:46:35;;;;;;;23.17;6.35;;;;;;;;;;5052564;28;20045;-67
2022/12/01 11:49:02;;;;;;;41.97;9.70;;;;;;;;;;5052659;28;20045;-67
2022/12/01 11:51:31;;;;;;;25.25;8.55;;;;;;;;;;5052416;28;20088;-67
2022/12/01 11:54:12;;;;;;;36.47;8.35;;;;;;;;;;5052402;28;20079;-67
2022/12/01 11:56:39;;;;;;;42.75;9.27;;;;;;;;;;5052338;28;20057;-67
2022/12/01 11:59:10;;;;;;;60.58;9.15;;;;;;;;;;5052595;28;20045;-67
2022/12/01 12:01:55;;;;;;;50.63;9.32;;;;;;;;;;5052646;28;20480;-67
2022/12/01 12:04:31;;;;;;;24.08;8.88;;;;;;;;;;5052392;28;20049;-67
2022/12/01 12:07:07;;;;;;;45.45;9.73;;;;;;;;;;5052134;28;20128;-67
2022/12/01 12:09:42;;;;;;;56.10;10.18;;;;;;;;;;5052429;28;20071;-67
2022/12/01 12:12:26;;;;;;;57.93;10.13;;;;;;;;;;5052007;28;20071;-67
2022/12/01 12:15:11;;;;;;;44.90;8.77;;;;;;;;;;5052372;28;20128;-67
2022/12/01 12:17:45;;;;;;;64.80;10.32;;;;;;;;;;5052350;28;20123;-67
2022/12/01 12:20:43;;;;;;;21.30;7.75;;;;;;;;;;5051959;28;20075;-67
2022/12/01 12:23:13;;;;;;;45.85;8.38;;;;;;;;;;5046194;28;20081;-67
2022/12/01 12:25:45;;;;;;;42.33;8.93;;;;;;;;;;5051911;28;20152;-66
2022/12/01 12:28:14;;;;;;;33.53;7.88;;;;;;;;;;5051888;28;20120;-66
2022/12/01 12:31:04;;;;;;;37.10;8.75;;;;;;;;;;5051942;28;20080;-66
2022/12/01 12:33:33;;;;;;;27.13;8.52;;;;;;;;;;5051321;28;20075;-66
2022/12/01 12:36:00;;;;;;;14.90;7.70;;;;;;;;;;5051761;28;20059;-66
2022/12/01 12:38:26;;;;;;;19.88;7.90;;;;;;;;;;5051637;28;20500;-67
2022/12/01 12:41:05;;;;;;;29.52;8.85;;;;;;;;;;5052013;28;20052;-66
2022/12/01 12:43:32;;;;;;;18.00;7.05;;;;;;;;;;5051471;28;20075;-66
2022/12/01 12:46:00;;;;;;;92.83;12.63;;;;;;;;;;5051893;28;20128;-67
2022/12/01 12:48:27;;;;;;;24.95;8.05;;;;;;;;;;5051801;28;20377;-67
2022/12/01 12:51:07;;;;;;;24.50;8.13;;;;;;;;;;5051763;28;20041;-67
2022/12/01 12:54:03;;;;;;;18.00;8.07;;;;;;;;;;5051635;28;20049;-67
2022/12/01 12:56:30;;;;;;;22.10;8.63;;;;;;;;;;5046857;28;20053;-67
2022/12/01 12:59:00;;;;;;;32.67;8.38;;;;;;;;;;5050949;28;20485;-67
2022/12/01 13:01:32;;;;;;;20.52;7.90;;;;;;;;;;5051761;28;20084;-67
2022/12/01 13:04:02;;;;;;;26.17;8.13;;;;;;;;;;5051264;28;20087;-67
2022/12/01 13:06:40;;;;;;;29.05;8.50;;;;;;;;;;5051314;28;20084;-66
2022/12/01 13:09:10;;;;;;;19.00;8.80;;;;;;;;;;5051537;28;20072;-66
2022/12/01 13:11:52;;;;;;;21.45;8.80;;;;;;;;;;5051599;28;20088;-67
2022/12/01 13:14:18;;;;;;;15.10;8.30;;;;;;;;;;5051278;28;20155;-66
2022/12/01 13:16:46;;;;;;;20.25;8.73;;;;;;;;;;5051624;28;20481;-66
2022/12/01 13:19:19;;;;;;;11.63;8.20;;;;;;;;;;5050944;28;20085;-66
2022/12/01 13:21:47;;;;;;;10.13;7.80;;;;;;;;;;5051518;28;20132;-67
2022/12/01 13:24:19;;;;;;;11.40;8.32;;;;;;;;;;5055325;28;20433;-67
2022/12/01 13:26:51;;;;;;;11.30;7.90;;;;;;;;;;5055299;28;20485;-67
2022/12/01 13:29:20;;;;;;;12.75;8.55;;;;;;;;;;5055128;28;20557;-67
2022/12/01 13:31:48;;;;;;;14.00;7.95;;;;;;;;;;5055081;28;20094;-67
2022/12/01 13:34:20;;;;;;;11.98;7.63;;;;;;;;;;5055410;28;20088;-67
2022/12/01 13:36:47;;;;;;;14.57;8.90;;;;;;;;;;5055302;28;20467;-67
2022/12/01 13:39:18;;;;;;;11.05;8.88;;;;;;;;;;5055317;28;20045;-66
2022/12/01 13:41:45;;;;;;;10.80;8.50;;;;;;;;;;5054982;28;20141;-67
2022/12/01 13:44:22;;;;;;;14.45;9.35;;;;;;;;;;5055092;28;20148;-67
2022/12/01 13:46:55;;;;;;;12.43;9.48;;;;;;;;;;5055089;28;20049;-67
2022/12/01 13:49:45;;;;;;;11.75;8.98;;;;;;;;;;5054863;28;20562;-67
2022/12/01 13:52:21;;;;;;;14.98;9.18;;;;;;;;;;5048688;28;20083;-67
2022/12/01 13:54:59;;;;;;;12.95;8.85;;;;;;;;;;5055082;28;20053;-67
2022/12/01 13:57:27;;;;;;;13.05;8.63;;;;;;;;;;5054681;28;20106;-67
2022/12/01 13:59:59;;;;;;;13.25;8.85;;;;;;;;;;5054814;28;20127;-67
2022/12/01 14:02:27;;;;;;;14.35;9.35;;;;;;;;;;5054708;28;20458;-66
2022/12/01 14:04:53;;;;;;;13.05;9.15;;;;;;;;;;5054692;28;20118;-67
2022/12/01 14:07:22;;;;;;;12.05;8.80;;;;;;;;;;5054419;28;20081;-67
2022/12/01 14:09:51;;;;;;;14.13;9.48;;;;;;;;;;5054626;28;20045;-67
2022/12/01 14:12:20;;;;;;;15.00;9.10;;;;;;;;;;5054337;28;20091;-66
2022/12/01 14:14:52;;;;;;;14.23;9.32;;;;;;;;;;5054332;28;20143;-66
2022/12/01 14:17:23;;;;;;;14.90;10.57;;;;;;;;;;5054310;28;20490;-67
2022/12/01 14:19:51;;;;;;;18.55;10.75;;;;;;;;;;5054305;28;20084;-66
2022/12/01 14:22:35;;;;;;;17.85;10.93;;;;;;;;;;5054367;28;20111;-66
2022/12/01 14:25:05;;;;;;;21.80;12.38;;;;;;;;;;5054154;28;20048;-66
2022/12/01 14:27:32;;;;;;;18.42;12.18;;;;;;;;;;5053231;28;20073;-66
2022/12/01 14:30:19;;;;;;;20.20;12.80;;;;;;;;;;5054001;28;20193;-66
2022/12/01 14:32:45;;;;;;;18.83;12.50;;;;;;;;;;5053932;28;20531;-67
2022/12/01 14:35:12;;;;;;;21.85;12.80;;;;;;;;;;5053097;28;20132;-67
2022/12/01 14:37:40;;;;;;;19.80;12.15;;;;;;;;;;5053980;28;20045;-66
2022/12/01 14:40:11;;;;;;;21.25;13.32;;;;;;;;;;5053883;28;20072;-67